Duluth International Airport
KDLH : now visible

Airfield :











YOU CAN JOIN US ON...

 
LOGIN :

Register | Disclaimer

   EN    FR    IT 

 









Legend :    VFR   Marginal VFR   IFR   Intensive IFR   Very Intensive IFR
Visi :
Ceiling :
>= 8 km
>= 3000ft
5 to 8 km
1000 to 3000 ft
1500m to 5 km
500 to 1000 ft
800 to 1500m
200 to 500 ft
< 800m
< 200 ft
Symbols :   Thunderstorms  Fog  Heavy snow  Heavy precipitations  Wind > 20 kt







- Airport Elevation : 1428 ft
- IATA code : DLH


KDLH - Duluth International

CURRENT METAR :
  • 210355Z 11009KT 1/8SM R09/1000FT FG VV002 14/13 A2997 RMK AO2 TWR VIS 1/4 SLP151 T01440128

EXPIRED METARs :
  • 210255Z 12011KT 1/4SM R09/1200V1800FT FG VV002 16/14 A2997 RMK AO2 SLP151 T01560139 58016
  • 210155Z 11010KT 1/8SM R09/1200V1400FT FG VV002 16/14 A3000 RMK AO2 TWR VIS 1/4 SLP161 T01560139
  • 210135Z 11011KT 1/8SM R09/1000V1200FT FG VV002 16/13 A3000 RMK AO2 TWR VIS 1/4 T01560133

TAF KDLH
Valid from the 21 at 00:00 until the 22 at 00:00 UTC


202344Z 2100/2124 11009KT 1SM BR OVC004
TEMPO 2100/2104 1/4SM FG VV002
FM210400 10006KT 1/4SM FG VV002 WS020/20030KT
FM211400 16008KT 3/4SM -SHRA BR VCTS OVC002CB
FM211600 17010G20KT 1 1/2SM -SHRA BR VCTS OVC003CB
No reported NOTAMs for that airfield.



MET'MAP, your aeronautical weather chart ! - Copyright ORBIFLY December 2007 - Disclaimer

ORBIFLY MET'MAP TEAM :

Programming & Development : Alexandra Zaïnal
Concept & Development : Baudouin d'Aumeries
Co-Development & Prog : Marc-Olivier Méhu
Technical & hardware support : Manuel Goepfert

Contact : metmap@orbifly.com




SOURCES & CREDITS :

   NOAA       Earth
Advisory